createdAt,value
2019-03-09T00:02:07.246Z,100389.78
2019-03-09T00:04:14.560Z,100397.50
2019-03-09T00:06:21.868Z,100399.66
2019-03-09T00:08:29.259Z,100396.75
2019-03-09T00:10:36.589Z,100403.59
2019-03-09T00:12:44.192Z,100391.92
2019-03-09T00:14:51.611Z,100399.36
2019-03-09T00:16:58.939Z,100396.31
2019-03-09T00:19:07.762Z,100397.66
2019-03-09T00:21:15.082Z,100404.09
2019-03-09T00:23:41.176Z,100398.97
2019-03-09T00:26:07.210Z,100409.42
2019-03-09T00:28:23.122Z,100406.92
2019-03-09T00:30:44.481Z,100412.56
2019-03-09T00:32:51.810Z,100419.16
2019-03-09T00:34:59.182Z,100412.36
2019-03-09T00:37:06.658Z,100418.41
2019-03-09T00:39:14.178Z,100421.89
2019-03-09T00:41:21.816Z,100425.45
2019-03-09T00:43:29.124Z,100416.13
2019-03-09T00:45:36.507Z,100431.58
2019-03-09T00:47:43.838Z,100429.47
2019-03-09T00:49:51.238Z,100429.42
2019-03-09T00:51:58.615Z,100426.56
2019-03-09T00:54:06.050Z,100424.64
2019-03-09T00:56:13.305Z,100426.46
2019-03-09T00:58:20.634Z,100425.24
2019-03-09T01:00:27.973Z,100429.16
2019-03-09T01:02:35.224Z,100426.77
2019-03-09T01:04:42.541Z,100428.73
2019-03-09T01:06:49.895Z,100426.55
2019-03-09T01:08:57.176Z,100424.44
2019-03-09T01:11:04.709Z,100427.97
2019-03-09T01:13:12.118Z,100430.63
2019-03-09T01:15:19.428Z,100426.01
2019-03-09T01:17:26.743Z,100431.28
2019-03-09T01:19:34.079Z,100435.97
2019-03-09T01:21:41.429Z,100432.81
2019-03-09T01:23:48.773Z,100436.48
2019-03-09T01:25:56.069Z,100432.81
2019-03-09T01:28:03.390Z,100437.44
2019-03-09T01:30:14.594Z,100434.91
2019-03-09T01:32:22.067Z,100437.33
2019-03-09T01:34:29.397Z,100431.36
2019-03-09T01:36:36.739Z,100429.82
2019-03-09T01:38:44.096Z,100426.20
2019-03-09T01:40:52.243Z,100423.35
2019-03-09T01:42:59.573Z,100426.85
2019-03-09T01:45:08.250Z,100422.43
2019-03-09T01:47:15.556Z,100422.93
2019-03-09T01:49:22.950Z,100426.97
2019-03-09T01:51:30.254Z,100426.66
2019-03-09T01:53:37.487Z,100424.19
2019-03-09T01:55:44.872Z,100424.84
2019-03-09T01:57:52.238Z,100418.49
2019-03-09T01:59:59.589Z,100412.92
2019-03-09T02:02:07.144Z,100417.38
2019-03-09T02:04:14.389Z,100413.07
2019-03-09T02:06:21.944Z,100417.08
2019-03-09T02:08:29.301Z,100417.77
2019-03-09T02:10:36.635Z,100413.34
2019-03-09T02:12:44.920Z,100415.67
2019-03-09T02:14:52.300Z,100408.11
2019-03-09T02:16:59.620Z,100409.73
2019-03-09T02:19:07.999Z,100410.02
2019-03-09T02:21:15.351Z,100414.73
2019-03-09T02:23:22.706Z,100413.43
2019-03-09T02:25:30.088Z,100408.02
2019-03-09T02:27:37.395Z,100406.47
2019-03-09T02:29:44.757Z,100407.13
2019-03-09T02:31:52.047Z,100408.70
2019-03-09T02:33:59.406Z,100406.27
2019-03-09T02:36:07.036Z,100419.38
2019-03-09T02:38:24.761Z,100405.74
2019-03-09T02:40:32.085Z,100398.60
2019-03-09T02:42:39.478Z,100402.81
2019-03-09T02:44:46.787Z,100398.60
2019-03-09T02:46:54.115Z,100396.63
2019-03-09T02:49:01.407Z,100401.96
2019-03-09T02:51:08.782Z,100404.89
2019-03-09T02:53:16.077Z,100410.92
2019-03-09T02:55:23.443Z,100400.83
2019-03-09T02:57:30.661Z,100398.68
2019-03-09T02:59:37.965Z,100394.72
2019-03-09T03:02:02.604Z,100395.34
2019-03-09T03:04:09.923Z,100390.83
2019-03-09T03:06:17.207Z,100383.56
2019-03-09T03:08:24.523Z,100386.91
2019-03-09T03:10:32.444Z,100385.33
2019-03-09T03:12:39.745Z,100391.53
2019-03-09T03:14:47.066Z,100389.87
2019-03-09T03:16:54.399Z,100385.70
2019-03-09T03:19:01.603Z,100387.89
2019-03-09T03:21:08.929Z,100388.52
2019-03-09T03:23:16.256Z,100380.59
2019-03-09T03:25:23.643Z,100384.11
2019-03-09T03:27:30.927Z,100384.23
2019-03-09T03:29:38.207Z,100381.57
2019-03-09T03:31:45.542Z,100377.66
2019-03-09T03:33:52.849Z,100383.13
2019-03-09T03:36:00.195Z,100382.81
2019-03-09T03:38:07.465Z,100382.87
2019-03-09T03:40:15.834Z,100389.66
2019-03-09T03:42:23.576Z,100383.86
2019-03-09T03:44:30.883Z,100385.06
2019-03-09T03:46:38.160Z,100381.76
2019-03-09T03:48:45.514Z,100377.84
2019-03-09T03:50:52.839Z,100376.83
2019-03-09T03:53:00.124Z,100387.34
2019-03-09T03:55:08.032Z,100376.27
2019-03-09T03:57:15.620Z,100381.92
2019-03-09T03:59:22.978Z,100376.11
2019-03-09T04:01:30.406Z,100378.72
2019-03-09T04:03:37.790Z,100377.42
2019-03-09T04:05:45.556Z,100366.45
2019-03-09T04:07:54.411Z,100368.12
2019-03-09T04:10:02.081Z,100362.24
2019-03-09T04:12:09.516Z,100362.55
2019-03-09T04:14:16.854Z,100361.00
2019-03-09T04:16:24.222Z,100365.15
2019-03-09T04:18:31.504Z,100351.41
2019-03-09T04:20:38.827Z,100358.06
2019-03-09T04:22:46.166Z,100356.14
2019-03-09T04:24:54.533Z,100357.55
2019-03-09T04:27:01.844Z,100355.97
2019-03-09T04:29:09.195Z,100348.47
2019-03-09T04:31:16.547Z,100350.23
2019-03-09T04:33:23.929Z,100356.46
2019-03-09T04:35:31.263Z,100353.76
2019-03-09T04:37:38.595Z,100343.91
2019-03-09T04:39:45.919Z,100344.20
2019-03-09T04:41:55.883Z,100335.13
2019-03-09T04:44:03.241Z,100336.10
2019-03-09T04:46:10.610Z,100328.53
2019-03-09T04:48:17.966Z,100335.58
2019-03-09T04:50:25.395Z,100339.47
2019-03-09T04:52:32.672Z,100333.98
2019-03-09T04:54:39.999Z,100342.14
2019-03-09T04:56:47.431Z,100340.08
2019-03-09T04:58:54.777Z,100335.34
2019-03-09T05:01:02.187Z,100335.34
2019-03-09T05:03:09.558Z,100337.38
2019-03-09T05:05:17.397Z,100330.49
2019-03-09T05:07:46.755Z,100321.06
2019-03-09T05:10:06.633Z,100331.25
2019-03-09T05:12:13.982Z,100331.02
2019-03-09T05:14:26.785Z,100336.72
2019-03-09T05:16:34.096Z,100330.85
2019-03-09T05:18:41.380Z,100333.46
2019-03-09T05:20:48.633Z,100326.48
2019-03-09T05:22:56.012Z,100327.85
2019-03-09T05:25:03.657Z,100326.16
2019-03-09T05:27:10.908Z,100317.19
2019-03-09T05:29:18.227Z,100310.37
2019-03-09T05:31:25.613Z,100303.28
2019-03-09T05:33:32.937Z,100302.54
2019-03-09T05:35:40.316Z,100306.78
2019-03-09T05:37:48.978Z,100295.84
2019-03-09T05:39:56.315Z,100298.55
2019-03-09T05:42:03.692Z,100297.25
2019-03-09T05:44:11.022Z,100292.09
2019-03-09T05:46:18.365Z,100294.64
2019-03-09T05:48:25.699Z,100292.52
2019-03-09T05:50:33.045Z,100287.47
2019-03-09T05:52:40.749Z,100281.27
2019-03-09T05:54:48.106Z,100275.72
2019-03-09T05:56:55.413Z,100275.72
2019-03-09T05:59:02.808Z,100275.66
2019-03-09T06:01:10.445Z,100271.35
2019-03-09T06:03:17.849Z,100271.67
2019-03-09T06:06:08.326Z,100265.83
2019-03-09T06:08:15.724Z,100259.62
2019-03-09T06:10:22.959Z,100252.71
2019-03-09T06:12:30.242Z,100247.22
2019-03-09T06:14:37.758Z,100256.67
2019-03-09T06:16:45.094Z,100250.54
2019-03-09T06:18:52.548Z,100246.55
2019-03-09T06:20:59.901Z,100242.50
2019-03-09T06:23:07.355Z,100243.34
2019-03-09T06:25:14.639Z,100247.61
2019-03-09T06:27:22.009Z,100245.78
2019-03-09T06:29:29.374Z,100248.28
2019-03-09T06:31:36.915Z,100238.65
2019-03-09T06:33:46.981Z,100231.59
2019-03-09T06:35:59.420Z,100230.67
2019-03-09T06:38:58.311Z,100229.22
2019-03-09T06:41:05.940Z,100221.70
2019-03-09T06:43:13.345Z,100226.49
2019-03-09T06:45:21.650Z,100219.85
2019-03-09T06:47:28.983Z,100213.21
2019-03-09T06:49:36.368Z,100211.87
2019-03-09T06:51:43.752Z,100192.70
2019-03-09T06:53:52.051Z,100207.48
2019-03-09T06:55:59.420Z,100205.61
2019-03-09T06:58:06.848Z,100192.78
2019-03-09T07:00:41.336Z,100190.97
2019-03-09T07:02:48.728Z,100187.47
2019-03-09T07:04:56.080Z,100177.21
2019-03-09T07:07:03.390Z,100180.94
2019-03-09T07:09:10.804Z,100179.93
2019-03-09T07:11:18.283Z,100179.36
2019-03-09T07:13:25.606Z,100180.92
2019-03-09T07:15:42.127Z,100179.87
2019-03-09T07:17:51.572Z,100172.76
2019-03-09T07:19:58.835Z,100174.37
2019-03-09T07:22:06.142Z,100171.59
2019-03-09T07:24:13.636Z,100164.38
2019-03-09T07:26:20.959Z,100164.59
2019-03-09T07:28:28.298Z,100162.10
2019-03-09T07:30:35.898Z,100158.64
2019-03-09T07:32:43.506Z,100154.92
2019-03-09T07:34:51.091Z,100153.63
2019-03-09T07:36:58.533Z,100142.13
2019-03-09T07:39:06.489Z,100133.77
2019-03-09T07:41:13.996Z,100129.58
2019-03-09T07:43:21.421Z,100128.48
2019-03-09T07:45:28.851Z,100124.33
2019-03-09T07:47:36.323Z,100122.55
2019-03-09T07:49:43.716Z,100120.78
2019-03-09T07:51:51.222Z,100123.69
2019-03-09T07:53:59.651Z,100124.81
2019-03-09T07:56:07.011Z,100123.88
2019-03-09T07:58:14.934Z,100124.58
2019-03-09T08:00:23.038Z,100116.48
2019-03-09T08:02:30.529Z,100113.55
2019-03-09T08:04:37.895Z,100104.55
2019-03-09T08:06:45.334Z,100104.77
2019-03-09T08:08:52.866Z,100103.48
2019-03-09T08:11:00.279Z,100097.59
2019-03-09T08:13:08.413Z,100104.55
2019-03-09T08:15:18.169Z,100092.88
2019-03-09T08:17:28.416Z,100087.16
2019-03-09T08:19:35.783Z,100083.50
2019-03-09T08:21:43.281Z,100080.83
2019-03-09T08:23:50.726Z,100071.52
2019-03-09T08:25:58.294Z,100072.19
2019-03-09T08:28:05.899Z,100063.92
2019-03-09T08:30:19.774Z,100061.24
2019-03-09T08:32:27.202Z,100053.70
2019-03-09T08:34:34.716Z,100057.52
2019-03-09T08:36:42.258Z,100040.66
2019-03-09T08:38:49.600Z,100041.07
2019-03-09T08:40:57.266Z,100038.72
2019-03-09T08:43:04.918Z,100025.14
2019-03-09T08:45:13.629Z,100033.13
2019-03-09T08:47:21.061Z,100027.81
2019-03-09T08:49:28.461Z,100018.28
2019-03-09T08:51:35.956Z,100012.56
2019-03-09T08:53:43.466Z,100009.52
2019-03-09T08:55:50.779Z,100011.38
2019-03-09T08:57:58.140Z,99992.82
2019-03-09T09:00:06.849Z,99989.95
2019-03-09T09:02:16.182Z,99982.23
2019-03-09T09:04:23.780Z,99980.86
2019-03-09T09:06:31.326Z,99977.13
2019-03-09T09:08:39.145Z,99983.44
2019-03-09T09:10:46.511Z,99974.12
2019-03-09T09:12:54.214Z,99958.80
2019-03-09T09:15:01.763Z,99958.97
2019-03-09T09:17:09.363Z,99950.59
2019-03-09T09:19:17.063Z,99940.84
2019-03-09T09:21:24.618Z,99939.00
2019-03-09T09:23:32.214Z,99927.21
2019-03-09T09:25:39.773Z,99924.33
2019-03-09T09:27:47.262Z,99919.80
2019-03-09T09:29:54.714Z,99921.96
2019-03-09T09:32:02.276Z,99923.83
2019-03-09T09:34:09.856Z,99906.86
2019-03-09T09:36:17.533Z,99909.53
2019-03-09T09:38:25.393Z,99899.93
2019-03-09T09:40:33.095Z,99894.41
2019-03-09T09:42:40.572Z,99894.37
2019-03-09T09:44:47.982Z,99892.47
2019-03-09T09:46:55.525Z,99884.54
2019-03-09T09:49:02.962Z,99887.83
2019-03-09T09:51:10.430Z,99889.41
2019-03-09T09:53:17.972Z,99888.30
2019-03-09T09:55:25.436Z,99877.56
2019-03-09T09:57:32.812Z,99869.24
2019-03-09T09:59:40.310Z,99847.52
2019-03-09T10:01:47.914Z,99847.39
2019-03-09T10:03:55.525Z,99833.09
2019-03-09T10:06:03.124Z,99823.11
2019-03-09T10:08:10.629Z,99811.09
2019-03-09T10:10:19.225Z,99809.50
2019-03-09T10:12:26.677Z,99807.73
2019-03-09T10:14:34.045Z,99798.89
2019-03-09T10:16:41.397Z,99784.77
2019-03-09T10:18:48.814Z,99773.64
2019-03-09T10:20:56.133Z,99769.97
2019-03-09T10:23:04.988Z,99762.52
2019-03-09T10:25:12.891Z,99752.14
2019-03-09T10:27:20.424Z,99744.06
2019-03-09T10:29:28.034Z,99745.73
2019-03-09T10:31:35.833Z,99734.98
2019-03-09T10:33:43.283Z,99732.73
2019-03-09T10:35:50.709Z,99730.30
2019-03-09T10:37:58.201Z,99737.36
2019-03-09T10:40:06.083Z,99727.42
2019-03-09T10:42:13.599Z,99730.65
2019-03-09T10:44:21.348Z,99725.26
2019-03-09T10:46:28.723Z,99724.69
2019-03-09T10:48:36.271Z,99715.12
2019-03-09T10:50:43.665Z,99711.53
2019-03-09T10:52:51.302Z,99715.83
2019-03-09T10:54:58.740Z,99697.93
2019-03-09T10:57:06.148Z,99698.89
2019-03-09T10:59:13.709Z,99691.57
2019-03-09T11:01:21.174Z,99690.91
2019-03-09T11:03:28.643Z,99677.48
2019-03-09T11:05:36.051Z,99672.00
2019-03-09T11:07:43.931Z,99671.81
2019-03-09T11:09:51.926Z,99673.13
2019-03-09T11:11:59.396Z,99664.00
2019-03-09T11:14:06.989Z,99653.58
2019-03-09T11:16:14.500Z,99656.97
2019-03-09T11:18:22.074Z,99642.35
2019-03-09T11:20:29.432Z,99634.18
2019-03-09T11:22:36.823Z,99621.72
2019-03-09T11:24:44.274Z,99624.15
2019-03-09T11:26:51.725Z,99630.08
2019-03-09T11:28:59.136Z,99616.81
2019-03-09T11:31:06.758Z,99606.80
2019-03-09T11:33:14.175Z,99605.17
2019-03-09T11:35:22.539Z,99603.38
2019-03-09T11:37:30.112Z,99598.50
2019-03-09T11:39:37.502Z,99589.66
2019-03-09T11:41:44.880Z,99592.66
2019-03-09T11:43:52.349Z,99579.86
2019-03-09T11:45:59.763Z,99571.25
2019-03-09T11:48:07.375Z,99566.73
2019-03-09T11:50:15.959Z,99563.73
2019-03-09T11:52:23.428Z,99558.08
2019-03-09T11:54:30.898Z,99537.95
2019-03-09T11:56:38.425Z,99542.66
2019-03-09T11:58:45.940Z,99536.63
2019-03-09T12:00:53.461Z,99526.66
2019-03-09T12:03:01.146Z,99527.09
2019-03-09T12:05:09.755Z,99522.32
2019-03-09T12:07:17.652Z,99510.10
2019-03-09T12:09:25.227Z,99505.36
2019-03-09T12:11:33.566Z,99501.80
2019-03-09T12:13:41.094Z,99505.01
2019-03-09T12:15:50.415Z,99483.00
2019-03-09T12:17:58.081Z,99480.16
2019-03-09T12:20:06.698Z,99476.02
2019-03-09T12:22:14.191Z,99479.97
2019-03-09T12:24:21.703Z,99477.08
2019-03-09T12:26:29.176Z,99463.06
2019-03-09T12:28:36.732Z,99483.00
2019-03-09T12:30:44.246Z,99457.84
2019-03-09T12:32:51.742Z,99449.15
2019-03-09T12:34:59.307Z,99487.53
2019-03-09T12:37:06.723Z,99494.86
2019-03-09T12:39:14.330Z,99523.03
2019-03-09T12:41:21.872Z,99535.72
2019-03-09T12:43:29.344Z,99543.45
2019-03-09T12:45:36.749Z,99560.44
2019-03-09T12:47:44.168Z,99564.05
2019-03-09T12:49:51.664Z,99557.33
2019-03-09T12:51:59.108Z,99552.33
2019-03-09T12:54:07.504Z,99555.42
2019-03-09T12:56:15.842Z,99558.48
2019-03-09T12:58:23.396Z,99528.70
2019-03-09T13:00:31.403Z,99554.17
2019-03-09T13:02:38.954Z,99529.50
2019-03-09T13:04:48.964Z,99529.35
2019-03-09T13:06:56.458Z,99539.58
2019-03-09T13:09:04.936Z,99546.20
2019-03-09T13:11:12.711Z,99539.20
2019-03-09T13:13:20.615Z,99551.70
2019-03-09T13:15:28.355Z,99541.05
2019-03-09T13:17:36.924Z,99535.45
2019-03-09T13:19:44.953Z,99536.47
2019-03-09T13:21:53.100Z,99530.55
2019-03-09T13:24:01.010Z,99536.57
2019-03-09T13:26:09.417Z,99548.66
2019-03-09T13:28:18.515Z,99541.41
2019-03-09T13:30:26.330Z,99548.92
2019-03-09T13:32:33.750Z,99525.34
2019-03-09T13:34:41.259Z,99534.85
2019-03-09T13:36:48.902Z,99541.33
2019-03-09T13:38:56.487Z,99540.69
2019-03-09T13:41:05.052Z,99533.66
2019-03-09T13:43:12.677Z,99527.81
2019-03-09T13:45:20.689Z,99525.88
2019-03-09T13:47:28.459Z,99546.29
2019-03-09T13:49:36.142Z,99531.45
2019-03-09T13:51:43.762Z,99523.59
2019-03-09T13:53:52.445Z,99515.58
2019-03-09T13:56:00.648Z,99529.02
2019-03-09T13:58:08.477Z,99520.45
2019-03-09T14:00:17.279Z,99524.38
2019-03-09T14:02:25.034Z,99520.38
2019-03-09T14:04:33.000Z,99522.63
2019-03-09T14:06:40.882Z,99515.61
2019-03-09T14:08:48.567Z,99510.54
2019-03-09T14:10:56.117Z,99509.12
2019-03-09T14:13:03.575Z,99511.38
2019-03-09T14:15:13.809Z,99509.75
2019-03-09T14:17:21.603Z,99514.22
2019-03-09T14:19:29.169Z,99501.72
2019-03-09T14:21:36.870Z,99510.42
2019-03-09T14:23:44.630Z,99516.73
2019-03-09T14:25:52.610Z,99503.26
2019-03-09T14:28:02.050Z,99507.02
2019-03-09T14:30:13.572Z,99512.89
2019-03-09T14:32:21.560Z,99509.73
2019-03-09T14:34:29.349Z,99507.14
2019-03-09T14:36:37.150Z,99493.78
2019-03-09T14:38:45.244Z,99499.06
2019-03-09T14:40:52.909Z,99489.34
2019-03-09T14:43:00.393Z,99491.50
2019-03-09T14:45:11.431Z,99496.45
2019-03-09T14:47:19.017Z,99496.84
2019-03-09T14:49:26.444Z,99540.89
2019-03-09T14:51:34.082Z,99562.31
2019-03-09T14:53:42.674Z,99557.83
2019-03-09T14:55:50.262Z,99557.07
2019-03-09T14:57:57.798Z,99583.85
2019-03-09T15:00:06.141Z,99586.64
2019-03-09T15:02:14.064Z,99611.02
2019-03-09T15:04:22.071Z,99588.68
2019-03-09T15:06:30.089Z,99561.65
2019-03-09T15:08:37.984Z,99531.92
2019-03-09T15:10:46.047Z,99508.04
2019-03-09T15:12:54.750Z,99453.57
2019-03-09T15:15:02.845Z,99467.00
2019-03-09T15:17:10.566Z,99480.31
2019-03-09T15:19:18.280Z,99494.11
2019-03-09T15:21:26.005Z,99499.61
2019-03-09T15:23:34.084Z,99509.44
2019-03-09T15:25:44.712Z,99525.84
2019-03-09T15:27:52.631Z,99525.89
2019-03-09T15:30:02.536Z,99535.83
2019-03-09T15:32:10.437Z,99528.61
2019-03-09T15:34:18.983Z,99518.98
2019-03-09T15:36:26.949Z,99498.44
2019-03-09T15:38:34.578Z,99517.75
2019-03-09T15:40:42.039Z,99528.67
2019-03-09T15:42:49.814Z,99495.52
2019-03-09T15:44:57.704Z,99512.83
2019-03-09T15:47:06.038Z,99533.38
2019-03-09T15:49:13.759Z,99543.44
2019-03-09T15:51:21.360Z,99570.56
2019-03-09T15:53:28.930Z,99585.16
2019-03-09T15:55:36.509Z,99603.84
2019-03-09T15:57:44.463Z,99595.63
2019-03-09T15:59:52.540Z,99603.52
2019-03-09T16:02:04.845Z,99622.28
2019-03-09T16:04:12.489Z,99629.72
2019-03-09T16:06:20.225Z,99620.75
2019-03-09T16:08:27.762Z,99540.30
2019-03-09T16:10:35.454Z,99530.17
2019-03-09T16:12:43.353Z,99519.19
2019-03-09T16:14:51.352Z,99510.89
2019-03-09T16:16:59.268Z,99516.52
2019-03-09T16:19:06.717Z,99516.27
2019-03-09T16:21:15.018Z,99510.10
2019-03-09T16:23:22.485Z,99511.58
2019-03-09T16:25:29.926Z,99505.17
2019-03-09T16:27:37.418Z,99505.75
2019-03-09T16:29:45.091Z,99501.37
2019-03-09T16:31:52.680Z,99505.55
2019-03-09T16:34:00.028Z,99505.42
2019-03-09T16:36:07.664Z,99511.04
2019-03-09T16:38:15.137Z,99519.27
2019-03-09T16:40:23.043Z,99518.73
2019-03-09T16:42:30.572Z,99522.00
2019-03-09T16:44:38.182Z,99520.29
2019-03-09T16:46:45.745Z,99519.04
2019-03-09T16:48:54.924Z,99504.28
2019-03-09T16:51:02.494Z,99507.87
2019-03-09T16:53:09.986Z,99502.89
2019-03-09T16:55:17.780Z,99497.34
2019-03-09T16:57:25.266Z,99500.28
2019-03-09T16:59:32.906Z,99505.84
2019-03-09T17:01:40.439Z,99498.48
2019-03-09T17:03:47.973Z,99501.66
2019-03-09T17:05:55.555Z,99509.07
2019-03-09T17:08:03.039Z,99503.23
2019-03-09T17:10:11.217Z,99500.48
2019-03-09T17:12:18.680Z,99502.41
2019-03-09T17:14:26.334Z,99510.97
2019-03-09T17:16:33.806Z,99505.90
2019-03-09T17:18:41.462Z,99503.99
2019-03-09T17:20:48.949Z,99506.88
2019-03-09T17:22:56.456Z,99511.39
2019-03-09T17:25:04.033Z,99505.95
2019-03-09T17:27:13.593Z,99504.22
2019-03-09T17:29:21.152Z,99504.41
2019-03-09T17:31:28.688Z,99504.73
2019-03-09T17:33:36.278Z,99508.03
2019-03-09T17:35:44.411Z,99506.04
2019-03-09T17:37:52.058Z,99504.73
2019-03-09T17:39:59.499Z,99501.25
2019-03-09T17:42:07.025Z,99503.85
2019-03-09T17:44:14.585Z,99504.36
2019-03-09T17:46:22.055Z,99510.93
2019-03-09T17:48:29.504Z,99494.89
2019-03-09T17:50:36.889Z,99494.89
2019-03-09T17:52:44.349Z,99495.69
2019-03-09T17:54:51.757Z,99486.28
2019-03-09T17:56:59.629Z,99483.95
2019-03-09T17:59:07.200Z,99481.12
2019-03-09T18:01:14.718Z,99475.98
2019-03-09T18:03:22.214Z,99475.47
2019-03-09T18:05:29.516Z,99471.17
2019-03-09T18:07:36.860Z,99470.25
2019-03-09T18:09:44.772Z,99464.98
2019-03-09T18:11:52.326Z,99467.86
2019-03-09T18:14:06.985Z,99456.77
2019-03-09T18:16:09.698Z,99462.25
2019-03-09T18:18:17.911Z,99457.77
2019-03-09T18:20:25.721Z,99450.69
2019-03-09T18:22:33.511Z,99446.15
2019-03-09T18:24:41.154Z,99446.60
2019-03-09T18:26:48.758Z,99446.60
2019-03-09T18:28:56.597Z,99445.35
2019-03-09T18:31:04.289Z,99435.06
2019-03-09T18:33:12.422Z,99440.08
2019-03-09T18:35:20.339Z,99430.42
2019-03-09T18:37:27.995Z,99425.62
2019-03-09T18:39:35.751Z,99428.50
2019-03-09T18:41:43.281Z,99423.42
2019-03-09T18:43:51.486Z,99414.13
2019-03-09T18:45:59.405Z,99414.97
2019-03-09T18:48:07.199Z,99403.88
2019-03-09T18:50:15.505Z,99408.63
2019-03-09T18:52:23.009Z,99412.92
2019-03-09T18:54:30.755Z,99410.30
2019-03-09T18:56:38.501Z,99405.75
2019-03-09T18:58:46.316Z,99406.19
2019-03-09T19:00:54.418Z,99403.78
2019-03-09T19:03:01.826Z,99395.11
2019-03-09T19:05:09.618Z,99391.55
2019-03-09T19:07:17.175Z,99388.24
2019-03-09T19:09:24.979Z,99386.22
2019-03-09T19:11:32.786Z,99383.55
2019-03-09T19:13:40.746Z,99384.70
2019-03-09T19:15:48.730Z,99382.34
2019-03-09T19:17:56.437Z,99378.17
2019-03-09T19:20:03.978Z,99375.09
2019-03-09T19:22:11.423Z,99370.86
2019-03-09T19:24:20.958Z,99369.09
2019-03-09T19:26:30.010Z,99372.10
2019-03-09T19:28:38.641Z,99364.02
2019-03-09T19:30:47.403Z,99366.04
2019-03-09T19:33:00.427Z,99361.59
2019-03-09T19:35:05.522Z,99357.67
2019-03-09T19:37:13.503Z,99353.07
2019-03-09T19:39:21.718Z,99355.78
2019-03-09T19:41:30.180Z,99344.42
2019-03-09T19:43:37.963Z,99327.44
2019-03-09T19:45:46.691Z,99329.64
2019-03-09T19:47:55.129Z,99327.52
2019-03-09T19:50:03.764Z,99324.98
2019-03-09T19:52:13.331Z,99326.28
2019-03-09T19:54:21.221Z,99315.30
2019-03-09T19:56:29.323Z,99307.70
2019-03-09T19:58:36.825Z,99304.56
2019-03-09T20:00:45.090Z,99299.92
2019-03-09T20:02:53.695Z,99294.61
2019-03-09T20:05:01.629Z,99289.73
2019-03-09T20:07:12.305Z,99284.03
2019-03-09T20:09:20.479Z,99283.61
2019-03-09T20:11:28.224Z,99286.66
2019-03-09T20:13:36.251Z,99289.98
2019-03-09T20:15:45.210Z,99293.53
2019-03-09T20:17:53.345Z,99282.97
2019-03-09T20:20:00.861Z,99285.52
2019-03-09T20:22:08.323Z,99283.31
2019-03-09T20:24:16.553Z,99279.39
2019-03-09T20:26:24.519Z,99279.83
2019-03-09T20:28:32.122Z,99280.60
2019-03-09T20:30:39.725Z,99274.37
2019-03-09T20:32:47.416Z,99259.97
2019-03-09T20:34:55.058Z,99251.38
2019-03-09T20:37:02.671Z,99246.15
2019-03-09T20:39:10.338Z,99233.66
2019-03-09T20:41:19.223Z,99222.95
2019-03-09T20:43:26.717Z,99213.48
2019-03-09T20:45:34.464Z,99206.10
2019-03-09T20:47:43.154Z,99198.15
2019-03-09T20:49:50.741Z,99193.20
2019-03-09T20:51:58.173Z,99217.06
2019-03-09T20:54:06.056Z,99210.74
2019-03-09T20:56:13.650Z,99211.67
2019-03-09T20:58:21.270Z,99237.16
2019-03-09T21:00:28.949Z,99257.72
2019-03-09T21:02:36.498Z,99261.34
2019-03-09T21:04:44.195Z,99248.91
2019-03-09T21:06:52.378Z,99241.77
2019-03-09T21:09:00.671Z,99243.11
2019-03-09T21:11:08.267Z,99229.80
2019-03-09T21:13:16.882Z,99237.28
2019-03-09T21:15:24.474Z,99228.30
2019-03-09T21:17:31.941Z,99228.08
2019-03-09T21:19:39.540Z,99218.63
2019-03-09T21:21:47.151Z,99209.75
2019-03-09T21:23:54.660Z,99211.75
2019-03-09T21:26:03.069Z,99207.28
2019-03-09T21:28:10.643Z,99192.59
2019-03-09T21:30:18.411Z,99193.61
2019-03-09T21:32:26.875Z,99183.31
2019-03-09T21:34:34.300Z,99183.45
2019-03-09T21:36:41.717Z,99185.48
2019-03-09T21:38:49.300Z,99180.84
2019-03-09T21:40:56.720Z,99177.41
2019-03-09T21:43:04.193Z,99171.45
2019-03-09T21:45:11.926Z,99169.14
2019-03-09T21:47:19.746Z,99162.41
2019-03-09T21:49:27.186Z,99157.83
2019-03-09T21:51:35.395Z,99155.76
2019-03-09T21:53:42.950Z,99154.23
2019-03-09T21:55:50.915Z,99154.41
2019-03-09T21:57:58.986Z,99153.81
2019-03-09T22:00:07.719Z,99143.12
2019-03-09T22:02:15.145Z,99136.48
2019-03-09T22:04:23.098Z,99146.52
2019-03-09T22:06:30.968Z,99136.19
2019-03-09T22:08:38.442Z,99129.75
2019-03-09T22:10:46.111Z,99126.81
2019-03-09T22:12:55.010Z,99130.14
2019-03-09T22:15:02.994Z,99113.61
2019-03-09T22:17:10.406Z,99108.45
2019-03-09T22:19:17.978Z,99096.14
2019-03-09T22:21:26.385Z,99083.22
2019-03-09T22:23:43.678Z,99089.65
2019-03-09T22:25:43.388Z,99086.81
2019-03-09T22:27:50.896Z,99077.44
2019-03-09T22:29:58.744Z,99071.81
2019-03-09T22:32:06.412Z,99066.88
2019-03-09T22:34:13.849Z,99065.34
2019-03-09T22:36:22.357Z,99069.81
2019-03-09T22:38:29.951Z,99063.20
2019-03-09T22:40:37.522Z,99050.19
2019-03-09T22:42:45.377Z,99053.53
2019-03-09T22:44:53.097Z,99043.54
2019-03-09T22:47:10.768Z,99043.32
2019-03-09T22:49:09.755Z,99043.80
2019-03-09T22:51:17.234Z,99036.39
2019-03-09T22:53:24.855Z,99035.55
2019-03-09T22:55:32.427Z,99039.00
2019-03-09T22:57:39.821Z,99031.80
2019-03-09T22:59:47.321Z,99022.03
2019-03-09T23:01:55.243Z,99015.13
2019-03-09T23:04:02.774Z,99017.75
2019-03-09T23:06:10.437Z,99011.03
2019-03-09T23:08:17.813Z,99007.66
2019-03-09T23:10:25.356Z,98998.17
2019-03-09T23:12:33.079Z,98990.62
2019-03-09T23:14:40.554Z,98999.41
2019-03-09T23:16:48.021Z,98983.54
2019-03-09T23:18:55.498Z,98981.80
2019-03-09T23:21:02.968Z,98978.78
2019-03-09T23:23:10.430Z,98984.95
2019-03-09T23:25:18.150Z,98980.63
2019-03-09T23:27:26.159Z,98978.86
2019-03-09T23:29:33.593Z,98984.73
2019-03-09T23:31:41.540Z,98975.19
2019-03-09T23:33:48.996Z,98974.06
2019-03-09T23:35:56.665Z,98968.50
2019-03-09T23:38:04.024Z,98971.73
2019-03-09T23:40:11.841Z,98967.13
2019-03-09T23:42:19.355Z,98955.17
2019-03-09T23:44:27.157Z,98958.16
2019-03-09T23:46:34.599Z,98951.08
2019-03-09T23:48:42.368Z,98952.96
2019-03-09T23:50:49.856Z,98947.73
2019-03-09T23:52:57.501Z,98941.59
2019-03-09T23:55:05.069Z,98940.09
2019-03-09T23:57:12.529Z,98943.95
2019-03-09T23:59:20.009Z,98934.58
